Spelter City, Oklahoma
Current Conditions -  °F | °C
As of 8:35 PM on Wednesday 26 Nov 2014 (Local Time) from KOKM Reporting Station
Clear Clear  
Wind Chill: 37°   Ceiling: Unl
Heat Index: 42°   Visibility: 10mi
Dew Point: 26°   Wind: 8mph
Humidity: 53%   Direction: 320°NW
Pressure: 30.35"   Gusts: NA
Location:  35.4729°N, 95.9709°W
Report Text: KOKM 270235Z AUTO 32007KT 10SM CLR 05/M03 A3035 RMK AO2 T00541035
Loading
Personal Weather Stations






























Interactive Weather Map New forecast layout! Learn more

10-Day Weather Forecast

Advertisements
Track Severe Weather on mobile